sensor_id;sensor_type;location;lat;lon;timestamp;P1;durP1;ratioP1;P2;durP2;ratioP2
9906;SDS011;4992;51.628;6.664;2023-04-07T00:01:42;32.97;;;28.70;;
9906;SDS011;4992;51.628;6.664;2023-04-07T00:04:08;35.73;;;29.87;;
9906;SDS011;4992;51.628;6.664;2023-04-07T00:06:34;36.10;;;28.30;;
9906;SDS011;4992;51.628;6.664;2023-04-07T00:09:00;35.97;;;28.73;;
9906;SDS011;4992;51.628;6.664;2023-04-07T00:11:26;35.47;;;29.17;;
9906;SDS011;4992;51.628;6.664;2023-04-07T00:13:52;32.27;;;28.63;;
9906;SDS011;4992;51.628;6.664;2023-04-07T00:16:18;34.10;;;27.57;;
9906;SDS011;4992;51.628;6.664;2023-04-07T00:18:44;35.10;;;28.40;;
9906;SDS011;4992;51.628;6.664;2023-04-07T00:21:10;34.73;;;28.40;;
9906;SDS011;4992;51.628;6.664;2023-04-07T00:23:36;35.63;;;29.90;;
9906;SDS011;4992;51.628;6.664;2023-04-07T00:26:02;36.87;;;28.50;;
9906;SDS011;4992;51.628;6.664;2023-04-07T00:28:28;35.77;;;28.80;;
9906;SDS011;4992;51.628;6.664;2023-04-07T00:30:54;32.60;;;26.83;;
9906;SDS011;4992;51.628;6.664;2023-04-07T00:33:20;33.93;;;27.83;;
9906;SDS011;4992;51.628;6.664;2023-04-07T00:35:46;32.47;;;25.50;;
9906;SDS011;4992;51.628;6.664;2023-04-07T00:38:12;34.90;;;25.93;;
9906;SDS011;4992;51.628;6.664;2023-04-07T00:40:38;29.20;;;24.60;;
9906;SDS011;4992;51.628;6.664;2023-04-07T00:43:04;27.03;;;24.07;;
9906;SDS011;4992;51.628;6.664;2023-04-07T00:45:30;31.57;;;25.17;;
9906;SDS011;4992;51.628;6.664;2023-04-07T00:47:56;32.13;;;24.87;;
9906;SDS011;4992;51.628;6.664;2023-04-07T00:50:22;33.10;;;25.17;;
9906;SDS011;4992;51.628;6.664;2023-04-07T00:52:49;29.60;;;24.57;;
9906;SDS011;4992;51.628;6.664;2023-04-07T00:55:15;31.77;;;24.77;;
9906;SDS011;4992;51.628;6.664;2023-04-07T00:57:41;31.97;;;25.80;;
9906;SDS011;4992;51.628;6.664;2023-04-07T01:00:07;33.07;;;26.00;;
9906;SDS011;4992;51.628;6.664;2023-04-07T01:02:40;32.57;;;25.03;;
9906;SDS011;4992;51.628;6.664;2023-04-07T01:05:17;30.63;;;24.40;;
9906;SDS011;4992;51.628;6.664;2023-04-07T01:10:40;33.33;;;25.80;;
9906;SDS011;4992;51.628;6.664;2023-04-07T01:13:11;33.77;;;25.10;;
9906;SDS011;4992;51.628;6.664;2023-04-07T01:15:38;36.13;;;27.30;;
9906;SDS011;4992;51.628;6.664;2023-04-07T01:18:14;35.30;;;25.47;;
9906;SDS011;4992;51.628;6.664;2023-04-07T01:20:42;39.17;;;26.33;;
9906;SDS011;4992;51.628;6.664;2023-04-07T01:23:08;37.83;;;27.73;;
9906;SDS011;4992;51.628;6.664;2023-04-07T01:25:48;39.93;;;28.03;;
9906;SDS011;4992;51.628;6.664;2023-04-07T01:31:01;38.67;;;26.77;;
9906;SDS011;4992;51.628;6.664;2023-04-07T01:33:28;36.93;;;27.93;;
9906;SDS011;4992;51.628;6.664;2023-04-07T01:35:56;36.67;;;26.93;;
9906;SDS011;4992;51.628;6.664;2023-04-07T01:38:24;43.07;;;28.87;;
9906;SDS011;4992;51.628;6.664;2023-04-07T01:40:51;41.97;;;26.93;;
9906;SDS011;4992;51.628;6.664;2023-04-07T01:43:17;40.27;;;27.87;;
9906;SDS011;4992;51.628;6.664;2023-04-07T01:45:43;41.73;;;28.60;;
9906;SDS011;4992;51.628;6.664;2023-04-07T01:48:10;48.20;;;30.80;;
9906;SDS011;4992;51.628;6.664;2023-04-07T01:50:36;46.77;;;30.07;;
9906;SDS011;4992;51.628;6.664;2023-04-07T01:53:03;48.27;;;31.23;;
9906;SDS011;4992;51.628;6.664;2023-04-07T01:55:29;51.17;;;31.73;;
9906;SDS011;4992;51.628;6.664;2023-04-07T01:57:56;54.83;;;32.20;;
9906;SDS011;4992;51.628;6.664;2023-04-07T02:00:22;57.23;;;32.63;;
9906;SDS011;4992;51.628;6.664;2023-04-07T02:02:48;55.77;;;33.77;;
9906;SDS011;4992;51.628;6.664;2023-04-07T02:05:18;56.23;;;33.77;;
9906;SDS011;4992;51.628;6.664;2023-04-07T02:10:11;58.30;;;33.17;;
9906;SDS011;4992;51.628;6.664;2023-04-07T02:12:38;64.30;;;33.93;;
9906;SDS011;4992;51.628;6.664;2023-04-07T02:15:05;60.77;;;34.33;;
9906;SDS011;4992;51.628;6.664;2023-04-07T02:17:33;59.63;;;33.63;;
9906;SDS011;4992;51.628;6.664;2023-04-07T02:20:00;58.30;;;32.97;;
9906;SDS011;4992;51.628;6.664;2023-04-07T02:22:27;58.10;;;32.80;;
9906;SDS011;4992;51.628;6.664;2023-04-07T02:24:53;60.60;;;34.20;;
9906;SDS011;4992;51.628;6.664;2023-04-07T02:27:19;62.27;;;33.40;;
9906;SDS011;4992;51.628;6.664;2023-04-07T02:29:45;71.20;;;32.13;;
9906;SDS011;4992;51.628;6.664;2023-04-07T02:32:11;59.97;;;33.20;;
9906;SDS011;4992;51.628;6.664;2023-04-07T02:34:37;57.67;;;31.33;;
9906;SDS011;4992;51.628;6.664;2023-04-07T02:37:03;62.73;;;31.83;;
9906;SDS011;4992;51.628;6.664;2023-04-07T02:39:29;63.37;;;31.00;;
9906;SDS011;4992;51.628;6.664;2023-04-07T02:41:55;55.90;;;31.27;;
9906;SDS011;4992;51.628;6.664;2023-04-07T02:44:21;59.00;;;30.57;;
9906;SDS011;4992;51.628;6.664;2023-04-07T02:46:47;57.43;;;29.40;;
9906;SDS011;4992;51.628;6.664;2023-04-07T02:49:13;62.30;;;28.37;;
9906;SDS011;4992;51.628;6.664;2023-04-07T02:51:39;59.73;;;29.10;;
9906;SDS011;4992;51.628;6.664;2023-04-07T02:54:05;57.80;;;26.77;;
9906;SDS011;4992;51.628;6.664;2023-04-07T02:56:31;56.93;;;27.43;;
9906;SDS011;4992;51.628;6.664;2023-04-07T02:58:57;53.17;;;26.93;;
9906;SDS011;4992;51.628;6.664;2023-04-07T03:01:23;61.60;;;28.27;;
9906;SDS011;4992;51.628;6.664;2023-04-07T03:03:49;58.03;;;27.37;;
9906;SDS011;4992;51.628;6.664;2023-04-07T03:06:15;57.73;;;27.37;;
9906;SDS011;4992;51.628;6.664;2023-04-07T03:08:41;58.07;;;28.00;;
9906;SDS011;4992;51.628;6.664;2023-04-07T03:11:07;58.73;;;27.70;;
9906;SDS011;4992;51.628;6.664;2023-04-07T03:13:33;56.27;;;28.07;;
9906;SDS011;4992;51.628;6.664;2023-04-07T03:15:59;55.83;;;26.80;;
9906;SDS011;4992;51.628;6.664;2023-04-07T03:18:25;53.63;;;26.87;;
9906;SDS011;4992;51.628;6.664;2023-04-07T03:20:51;51.97;;;25.50;;
9906;SDS011;4992;51.628;6.664;2023-04-07T03:23:19;49.53;;;26.07;;
9906;SDS011;4992;51.628;6.664;2023-04-07T03:25:45;54.20;;;26.73;;
9906;SDS011;4992;51.628;6.664;2023-04-07T03:28:11;53.23;;;26.23;;
9906;SDS011;4992;51.628;6.664;2023-04-07T03:30:37;59.07;;;28.17;;
9906;SDS011;4992;51.628;6.664;2023-04-07T03:33:03;55.30;;;26.40;;
9906;SDS011;4992;51.628;6.664;2023-04-07T03:35:29;52.60;;;25.47;;
9906;SDS011;4992;51.628;6.664;2023-04-07T03:37:55;56.73;;;26.63;;
9906;SDS011;4992;51.628;6.664;2023-04-07T03:40:21;51.07;;;24.43;;
9906;SDS011;4992;51.628;6.664;2023-04-07T03:42:47;53.17;;;24.53;;
9906;SDS011;4992;51.628;6.664;2023-04-07T03:45:13;50.33;;;24.63;;
9906;SDS011;4992;51.628;6.664;2023-04-07T03:47:39;47.97;;;25.03;;
9906;SDS011;4992;51.628;6.664;2023-04-07T03:50:05;48.43;;;23.97;;
9906;SDS011;4992;51.628;6.664;2023-04-07T03:52:31;46.40;;;22.90;;
9906;SDS011;4992;51.628;6.664;2023-04-07T03:54:57;45.43;;;24.57;;
9906;SDS011;4992;51.628;6.664;2023-04-07T03:57:23;44.90;;;22.20;;
9906;SDS011;4992;51.628;6.664;2023-04-07T03:59:49;45.40;;;22.23;;
9906;SDS011;4992;51.628;6.664;2023-04-07T04:02:16;40.70;;;21.47;;
9906;SDS011;4992;51.628;6.664;2023-04-07T04:04:42;42.47;;;19.87;;
9906;SDS011;4992;51.628;6.664;2023-04-07T04:07:07;34.87;;;19.40;;
9906;SDS011;4992;51.628;6.664;2023-04-07T04:09:33;35.90;;;19.10;;
9906;SDS011;4992;51.628;6.664;2023-04-07T04:12:00;30.97;;;16.87;;
9906;SDS011;4992;51.628;6.664;2023-04-07T04:14:26;24.73;;;14.43;;
9906;SDS011;4992;51.628;6.664;2023-04-07T04:16:52;26.63;;;15.27;;
9906;SDS011;4992;51.628;6.664;2023-04-07T04:19:18;24.57;;;15.10;;
9906;SDS011;4992;51.628;6.664;2023-04-07T04:21:44;26.83;;;14.53;;
9906;SDS011;4992;51.628;6.664;2023-04-07T04:24:10;22.63;;;13.57;;
9906;SDS011;4992;51.628;6.664;2023-04-07T04:26:36;21.67;;;13.23;;
9906;SDS011;4992;51.628;6.664;2023-04-07T04:29:02;23.47;;;11.83;;
9906;SDS011;4992;51.628;6.664;2023-04-07T04:31:28;21.43;;;11.87;;
9906;SDS011;4992;51.628;6.664;2023-04-07T04:33:54;24.40;;;11.90;;
9906;SDS011;4992;51.628;6.664;2023-04-07T04:36:20;20.43;;;12.07;;
9906;SDS011;4992;51.628;6.664;2023-04-07T04:38:46;19.00;;;11.30;;
9906;SDS011;4992;51.628;6.664;2023-04-07T04:41:12;18.33;;;11.07;;
9906;SDS011;4992;51.628;6.664;2023-04-07T04:43:38;18.27;;;10.27;;
9906;SDS011;4992;51.628;6.664;2023-04-07T04:46:04;15.40;;;9.83;;
9906;SDS011;4992;51.628;6.664;2023-04-07T04:48:30;16.37;;;9.73;;
9906;SDS011;4992;51.628;6.664;2023-04-07T04:50:56;15.33;;;9.37;;
9906;SDS011;4992;51.628;6.664;2023-04-07T04:53:22;17.03;;;10.07;;
9906;SDS011;4992;51.628;6.664;2023-04-07T04:55:48;14.23;;;8.60;;
9906;SDS011;4992;51.628;6.664;2023-04-07T04:58:16;13.67;;;8.40;;
9906;SDS011;4992;51.628;6.664;2023-04-07T05:00:42;14.70;;;9.07;;
9906;SDS011;4992;51.628;6.664;2023-04-07T05:03:08;14.67;;;9.00;;
9906;SDS011;4992;51.628;6.664;2023-04-07T05:05:34;12.07;;;9.33;;
9906;SDS011;4992;51.628;6.664;2023-04-07T05:08:00;13.70;;;9.03;;
9906;SDS011;4992;51.628;6.664;2023-04-07T05:10:26;14.80;;;8.77;;
9906;SDS011;4992;51.628;6.664;2023-04-07T05:12:52;15.83;;;9.03;;
9906;SDS011;4992;51.628;6.664;2023-04-07T05:15:18;11.57;;;8.13;;
9906;SDS011;4992;51.628;6.664;2023-04-07T05:17:44;13.90;;;9.10;;
9906;SDS011;4992;51.628;6.664;2023-04-07T05:20:14;13.63;;;8.83;;
9906;SDS011;4992;51.628;6.664;2023-04-07T05:22:40;14.33;;;8.80;;
9906;SDS011;4992;51.628;6.664;2023-04-07T05:25:06;17.37;;;10.13;;
9906;SDS011;4992;51.628;6.664;2023-04-07T05:27:32;15.47;;;9.13;;
9906;SDS011;4992;51.628;6.664;2023-04-07T05:29:58;23.07;;;10.63;;
9906;SDS011;4992;51.628;6.664;2023-04-07T05:32:25;18.63;;;9.67;;
9906;SDS011;4992;51.628;6.664;2023-04-07T05:34:51;16.37;;;9.97;;
9906;SDS011;4992;51.628;6.664;2023-04-07T05:37:17;17.07;;;10.23;;
9906;SDS011;4992;51.628;6.664;2023-04-07T05:39:42;16.20;;;10.47;;
9906;SDS011;4992;51.628;6.664;2023-04-07T05:42:08;23.63;;;12.47;;
9906;SDS011;4992;51.628;6.664;2023-04-07T05:44:35;20.57;;;12.07;;
9906;SDS011;4992;51.628;6.664;2023-04-07T05:47:01;22.53;;;11.13;;
9906;SDS011;4992;51.628;6.664;2023-04-07T05:49:29;20.60;;;12.40;;
9906;SDS011;4992;51.628;6.664;2023-04-07T05:51:55;24.90;;;14.23;;
9906;SDS011;4992;51.628;6.664;2023-04-07T05:54:21;25.33;;;13.50;;
9906;SDS011;4992;51.628;6.664;2023-04-07T05:56:47;23.27;;;13.33;;
9906;SDS011;4992;51.628;6.664;2023-04-07T05:59:13;23.87;;;13.97;;
9906;SDS011;4992;51.628;6.664;2023-04-07T06:01:39;29.17;;;15.67;;
9906;SDS011;4992;51.628;6.664;2023-04-07T06:04:05;34.13;;;15.90;;
9906;SDS011;4992;51.628;6.664;2023-04-07T06:06:31;33.83;;;16.20;;
9906;SDS011;4992;51.628;6.664;2023-04-07T06:08:57;34.47;;;18.27;;
9906;SDS011;4992;51.628;6.664;2023-04-07T06:11:24;32.47;;;17.67;;
9906;SDS011;4992;51.628;6.664;2023-04-07T06:13:50;31.60;;;16.93;;
9906;SDS011;4992;51.628;6.664;2023-04-07T06:16:16;31.70;;;18.00;;
9906;SDS011;4992;51.628;6.664;2023-04-07T06:18:42;32.23;;;17.27;;
9906;SDS011;4992;51.628;6.664;2023-04-07T06:21:08;30.33;;;16.70;;
9906;SDS011;4992;51.628;6.664;2023-04-07T06:23:34;34.07;;;17.80;;
9906;SDS011;4992;51.628;6.664;2023-04-07T06:26:00;36.43;;;17.30;;
9906;SDS011;4992;51.628;6.664;2023-04-07T06:28:26;29.77;;;16.70;;
9906;SDS011;4992;51.628;6.664;2023-04-07T06:30:52;35.10;;;18.10;;
9906;SDS011;4992;51.628;6.664;2023-04-07T06:33:18;37.57;;;18.10;;
9906;SDS011;4992;51.628;6.664;2023-04-07T06:35:47;39.13;;;18.30;;
9906;SDS011;4992;51.628;6.664;2023-04-07T06:38:13;30.97;;;16.63;;
9906;SDS011;4992;51.628;6.664;2023-04-07T06:40:39;33.63;;;17.37;;
9906;SDS011;4992;51.628;6.664;2023-04-07T06:43:05;33.13;;;17.77;;
9906;SDS011;4992;51.628;6.664;2023-04-07T06:45:31;34.20;;;16.43;;
9906;SDS011;4992;51.628;6.664;2023-04-07T06:47:57;33.60;;;17.03;;
9906;SDS011;4992;51.628;6.664;2023-04-07T06:50:23;30.30;;;17.33;;
9906;SDS011;4992;51.628;6.664;2023-04-07T06:52:49;30.20;;;15.57;;
9906;SDS011;4992;51.628;6.664;2023-04-07T06:55:15;30.87;;;15.83;;
9906;SDS011;4992;51.628;6.664;2023-04-07T06:57:41;29.00;;;15.60;;
9906;SDS011;4992;51.628;6.664;2023-04-07T07:00:07;26.53;;;14.93;;
9906;SDS011;4992;51.628;6.664;2023-04-07T07:02:34;30.57;;;14.83;;
9906;SDS011;4992;51.628;6.664;2023-04-07T07:05:00;26.80;;;15.33;;
9906;SDS011;4992;51.628;6.664;2023-04-07T07:07:28;29.83;;;15.73;;
9906;SDS011;4992;51.628;6.664;2023-04-07T07:09:54;25.97;;;14.60;;
9906;SDS011;4992;51.628;6.664;2023-04-07T07:12:20;29.47;;;15.13;;
9906;SDS011;4992;51.628;6.664;2023-04-07T07:14:46;31.03;;;15.30;;
9906;SDS011;4992;51.628;6.664;2023-04-07T07:17:12;26.10;;;13.67;;
9906;SDS011;4992;51.628;6.664;2023-04-07T07:19:38;26.43;;;15.20;;
9906;SDS011;4992;51.628;6.664;2023-04-07T07:22:04;22.40;;;14.00;;
9906;SDS011;4992;51.628;6.664;2023-04-07T07:24:30;25.20;;;13.97;;
9906;SDS011;4992;51.628;6.664;2023-04-07T07:26:58;25.57;;;13.30;;
9906;SDS011;4992;51.628;6.664;2023-04-07T07:29:24;21.47;;;12.30;;
9906;SDS011;4992;51.628;6.664;2023-04-07T07:31:51;22.83;;;11.80;;
9906;SDS011;4992;51.628;6.664;2023-04-07T07:34:17;19.80;;;12.00;;
9906;SDS011;4992;51.628;6.664;2023-04-07T07:36:42;20.07;;;11.07;;
9906;SDS011;4992;51.628;6.664;2023-04-07T07:39:09;21.23;;;10.73;;
9906;SDS011;4992;51.628;6.664;2023-04-07T07:41:35;16.83;;;10.97;;
9906;SDS011;4992;51.628;6.664;2023-04-07T07:44:01;18.50;;;11.47;;
9906;SDS011;4992;51.628;6.664;2023-04-07T07:46:27;16.60;;;10.20;;
9906;SDS011;4992;51.628;6.664;2023-04-07T07:48:53;20.10;;;10.67;;
9906;SDS011;4992;51.628;6.664;2023-04-07T07:51:19;22.33;;;10.10;;
9906;SDS011;4992;51.628;6.664;2023-04-07T07:53:45;20.53;;;11.07;;
9906;SDS011;4992;51.628;6.664;2023-04-07T07:56:11;18.30;;;12.27;;
9906;SDS011;4992;51.628;6.664;2023-04-07T07:58:37;23.80;;;12.40;;
9906;SDS011;4992;51.628;6.664;2023-04-07T08:01:03;20.37;;;12.80;;
9906;SDS011;4992;51.628;6.664;2023-04-07T08:03:29;20.87;;;12.57;;
9906;SDS011;4992;51.628;6.664;2023-04-07T08:05:55;20.07;;;11.33;;
9906;SDS011;4992;51.628;6.664;2023-04-07T08:08:21;23.97;;;12.27;;
9906;SDS011;4992;51.628;6.664;2023-04-07T08:10:47;23.50;;;13.07;;
9906;SDS011;4992;51.628;6.664;2023-04-07T08:13:13;21.10;;;13.67;;
9906;SDS011;4992;51.628;6.664;2023-04-07T08:15:39;19.43;;;12.67;;
9906;SDS011;4992;51.628;6.664;2023-04-07T08:18:05;23.87;;;13.03;;
9906;SDS011;4992;51.628;6.664;2023-04-07T08:20:32;21.07;;;12.33;;
9906;SDS011;4992;51.628;6.664;2023-04-07T08:22:58;21.00;;;13.77;;
9906;SDS011;4992;51.628;6.664;2023-04-07T08:25:26;23.73;;;13.83;;
9906;SDS011;4992;51.628;6.664;2023-04-07T08:27:52;24.57;;;13.60;;
9906;SDS011;4992;51.628;6.664;2023-04-07T08:30:18;24.47;;;14.40;;
9906;SDS011;4992;51.628;6.664;2023-04-07T08:32:45;26.07;;;14.37;;
9906;SDS011;4992;51.628;6.664;2023-04-07T08:35:11;21.60;;;14.50;;
9906;SDS011;4992;51.628;6.664;2023-04-07T08:37:37;28.00;;;14.13;;
9906;SDS011;4992;51.628;6.664;2023-04-07T08:40:04;23.67;;;13.97;;
9906;SDS011;4992;51.628;6.664;2023-04-07T08:42:31;25.23;;;14.37;;
9906;SDS011;4992;51.628;6.664;2023-04-07T08:44:59;25.47;;;14.37;;
9906;SDS011;4992;51.628;6.664;2023-04-07T08:47:26;23.53;;;14.40;;
9906;SDS011;4992;51.628;6.664;2023-04-07T08:49:53;20.37;;;14.23;;
9906;SDS011;4992;51.628;6.664;2023-04-07T08:52:21;20.77;;;14.97;;
9906;SDS011;4992;51.628;6.664;2023-04-07T08:54:48;27.43;;;18.50;;
9906;SDS011;4992;51.628;6.664;2023-04-07T08:57:14;22.17;;;15.27;;
9906;SDS011;4992;51.628;6.664;2023-04-07T08:59:41;22.13;;;13.80;;
9906;SDS011;4992;51.628;6.664;2023-04-07T09:02:09;21.07;;;13.70;;
9906;SDS011;4992;51.628;6.664;2023-04-07T09:04:35;21.97;;;13.47;;
9906;SDS011;4992;51.628;6.664;2023-04-07T09:07:01;22.93;;;12.63;;
9906;SDS011;4992;51.628;6.664;2023-04-07T09:09:28;21.67;;;13.83;;
9906;SDS011;4992;51.628;6.664;2023-04-07T09:11:54;24.87;;;13.33;;
9906;SDS011;4992;51.628;6.664;2023-04-07T09:14:20;20.57;;;13.23;;
9906;SDS011;4992;51.628;6.664;2023-04-07T09:16:46;21.23;;;13.60;;
9906;SDS011;4992;51.628;6.664;2023-04-07T09:19:12;22.57;;;14.50;;
9906;SDS011;4992;51.628;6.664;2023-04-07T09:21:48;21.33;;;15.03;;
9906;SDS011;4992;51.628;6.664;2023-04-07T09:24:21;28.50;;;14.50;;
9906;SDS011;4992;51.628;6.664;2023-04-07T09:26:47;24.63;;;13.70;;
9906;SDS011;4992;51.628;6.664;2023-04-07T09:29:17;24.93;;;14.47;;
9906;SDS011;4992;51.628;6.664;2023-04-07T09:31:47;22.93;;;13.47;;
9906;SDS011;4992;51.628;6.664;2023-04-07T09:34:26;20.40;;;12.83;;
9906;SDS011;4992;51.628;6.664;2023-04-07T09:36:52;24.27;;;13.60;;
9906;SDS011;4992;51.628;6.664;2023-04-07T09:39:18;22.40;;;13.70;;
9906;SDS011;4992;51.628;6.664;2023-04-07T09:41:45;17.50;;;12.47;;
9906;SDS011;4992;51.628;6.664;2023-04-07T09:44:11;18.53;;;12.23;;
9906;SDS011;4992;51.628;6.664;2023-04-07T09:46:56;16.87;;;11.93;;
9906;SDS011;4992;51.628;6.664;2023-04-07T09:49:22;18.83;;;13.13;;
9906;SDS011;4992;51.628;6.664;2023-04-07T09:51:56;20.97;;;13.63;;
9906;SDS011;4992;51.628;6.664;2023-04-07T09:54:40;21.23;;;13.03;;
9906;SDS011;4992;51.628;6.664;2023-04-07T09:57:07;16.47;;;12.03;;
9906;SDS011;4992;51.628;6.664;2023-04-07T09:59:33;15.00;;;11.13;;
9906;SDS011;4992;51.628;6.664;2023-04-07T10:02:00;16.87;;;11.37;;
9906;SDS011;4992;51.628;6.664;2023-04-07T10:04:26;16.03;;;11.63;;
9906;SDS011;4992;51.628;6.664;2023-04-07T10:06:53;18.20;;;11.93;;
9906;SDS011;4992;51.628;6.664;2023-04-07T10:09:22;20.27;;;11.53;;
9906;SDS011;4992;51.628;6.664;2023-04-07T10:11:49;15.87;;;11.50;;
9906;SDS011;4992;51.628;6.664;2023-04-07T10:14:16;18.43;;;12.27;;
9906;SDS011;4992;51.628;6.664;2023-04-07T10:16:42;14.53;;;10.67;;
9906;SDS011;4992;51.628;6.664;2023-04-07T10:19:08;14.13;;;9.93;;
9906;SDS011;4992;51.628;6.664;2023-04-07T10:21:37;15.83;;;10.00;;
9906;SDS011;4992;51.628;6.664;2023-04-07T10:26:45;12.20;;;8.53;;
9906;SDS011;4992;51.628;6.664;2023-04-07T10:29:12;12.43;;;8.60;;
9906;SDS011;4992;51.628;6.664;2023-04-07T10:31:40;14.57;;;8.77;;
9906;SDS011;4992;51.628;6.664;2023-04-07T10:34:06;11.50;;;8.83;;
9906;SDS011;4992;51.628;6.664;2023-04-07T10:36:32;15.53;;;9.80;;
9906;SDS011;4992;51.628;6.664;2023-04-07T10:44:00;10.23;;;8.23;;
9906;SDS011;4992;51.628;6.664;2023-04-07T10:49:16;11.73;;;8.23;;
9906;SDS011;4992;51.628;6.664;2023-04-07T10:51:42;11.03;;;8.70;;
9906;SDS011;4992;51.628;6.664;2023-04-07T10:54:21;8.97;;;7.57;;
9906;SDS011;4992;51.628;6.664;2023-04-07T10:59:29;8.00;;;7.20;;
9906;SDS011;4992;51.628;6.664;2023-04-07T11:04:41;7.32;;;6.55;;
9906;SDS011;4992;51.628;6.664;2023-04-07T11:07:08;7.50;;;5.47;;
9906;SDS011;4992;51.628;6.664;2023-04-07T11:09:34;7.53;;;5.22;;
9906;SDS011;4992;51.628;6.664;2023-04-07T11:12:00;8.35;;;5.03;;
9906;SDS011;4992;51.628;6.664;2023-04-07T11:14:30;6.15;;;5.32;;
9906;SDS011;4992;51.628;6.664;2023-04-07T11:16:56;5.85;;;4.68;;
9906;SDS011;4992;51.628;6.664;2023-04-07T11:19:23;5.25;;;4.72;;
9906;SDS011;4992;51.628;6.664;2023-04-07T11:21:49;8.98;;;4.93;;
9906;SDS011;4992;51.628;6.664;2023-04-07T11:24:34;4.68;;;4.28;;
9906;SDS011;4992;51.628;6.664;2023-04-07T11:27:03;7.75;;;5.00;;
9906;SDS011;4992;51.628;6.664;2023-04-07T11:29:30;6.03;;;5.10;;
9906;SDS011;4992;51.628;6.664;2023-04-07T11:31:57;6.43;;;5.30;;
9906;SDS011;4992;51.628;6.664;2023-04-07T11:34:30;6.43;;;5.68;;
9906;SDS011;4992;51.628;6.664;2023-04-07T11:36:56;8.73;;;5.90;;
9906;SDS011;4992;51.628;6.664;2023-04-07T11:39:27;7.55;;;6.22;;
9906;SDS011;4992;51.628;6.664;2023-04-07T11:41:56;7.63;;;6.88;;
9906;SDS011;4992;51.628;6.664;2023-04-07T11:44:22;8.85;;;6.32;;
9906;SDS011;4992;51.628;6.664;2023-04-07T11:46:57;11.60;;;7.18;;
9906;SDS011;4992;51.628;6.664;2023-04-07T11:49:24;10.32;;;8.32;;
9906;SDS011;4992;51.628;6.664;2023-04-07T11:51:58;9.30;;;8.15;;
9906;SDS011;4992;51.628;6.664;2023-04-07T11:54:25;11.40;;;8.73;;
9906;SDS011;4992;51.628;6.664;2023-04-07T11:56:51;10.43;;;8.40;;
9906;SDS011;4992;51.628;6.664;2023-04-07T11:59:20;11.00;;;7.55;;
9906;SDS011;4992;51.628;6.664;2023-04-07T12:01:47;14.47;;;8.40;;
9906;SDS011;4992;51.628;6.664;2023-04-07T12:04:13;22.52;;;16.60;;
9906;SDS011;4992;51.628;6.664;2023-04-07T12:06:42;10.50;;;7.15;;
9906;SDS011;4992;51.628;6.664;2023-04-07T12:09:21;9.70;;;8.80;;
9906;SDS011;4992;51.628;6.664;2023-04-07T12:11:50;14.17;;;8.93;;
9906;SDS011;4992;51.628;6.664;2023-04-07T12:14:16;12.02;;;9.05;;
9906;SDS011;4992;51.628;6.664;2023-04-07T12:16:42;11.05;;;8.65;;
9906;SDS011;4992;51.628;6.664;2023-04-07T12:19:09;10.68;;;8.40;;
9906;SDS011;4992;51.628;6.664;2023-04-07T12:21:35;10.52;;;8.52;;
9906;SDS011;4992;51.628;6.664;2023-04-07T12:24:01;10.95;;;8.23;;
9906;SDS011;4992;51.628;6.664;2023-04-07T12:26:27;9.20;;;8.27;;
9906;SDS011;4992;51.628;6.664;2023-04-07T12:28:53;10.63;;;8.63;;
9906;SDS011;4992;51.628;6.664;2023-04-07T12:31:19;10.50;;;8.18;;
9906;SDS011;4992;51.628;6.664;2023-04-07T12:33:45;11.48;;;8.57;;
9906;SDS011;4992;51.628;6.664;2023-04-07T12:36:11;8.20;;;7.10;;
9906;SDS011;4992;51.628;6.664;2023-04-07T12:38:37;11.90;;;8.35;;
9906;SDS011;4992;51.628;6.664;2023-04-07T12:41:03;11.02;;;7.90;;
9906;SDS011;4992;51.628;6.664;2023-04-07T12:43:29;9.38;;;8.30;;
9906;SDS011;4992;51.628;6.664;2023-04-07T12:45:56;11.32;;;7.75;;
9906;SDS011;4992;51.628;6.664;2023-04-07T12:48:22;9.95;;;7.38;;
9906;SDS011;4992;51.628;6.664;2023-04-07T12:50:48;9.93;;;7.20;;
9906;SDS011;4992;51.628;6.664;2023-04-07T12:53:14;9.00;;;7.30;;
9906;SDS011;4992;51.628;6.664;2023-04-07T12:55:40;9.85;;;7.28;;
9906;SDS011;4992;51.628;6.664;2023-04-07T12:58:06;7.20;;;6.43;;
9906;SDS011;4992;51.628;6.664;2023-04-07T13:00:33;7.50;;;6.40;;
9906;SDS011;4992;51.628;6.664;2023-04-07T13:02:59;9.38;;;6.72;;
9906;SDS011;4992;51.628;6.664;2023-04-07T13:05:27;7.45;;;6.57;;
9906;SDS011;4992;51.628;6.664;2023-04-07T13:07:53;7.05;;;6.35;;
9906;SDS011;4992;51.628;6.664;2023-04-07T13:10:19;9.02;;;6.53;;
9906;SDS011;4992;51.628;6.664;2023-04-07T13:12:45;8.68;;;7.38;;
9906;SDS011;4992;51.628;6.664;2023-04-07T13:15:11;9.50;;;7.53;;
9906;SDS011;4992;51.628;6.664;2023-04-07T13:17:37;9.60;;;7.53;;
9906;SDS011;4992;51.628;6.664;2023-04-07T13:20:04;9.70;;;7.78;;
9906;SDS011;4992;51.628;6.664;2023-04-07T13:22:30;12.40;;;7.70;;
9906;SDS011;4992;51.628;6.664;2023-04-07T13:24:56;11.63;;;8.10;;
9906;SDS011;4992;51.628;6.664;2023-04-07T13:27:22;12.63;;;7.82;;
9906;SDS011;4992;51.628;6.664;2023-04-07T13:29:48;8.98;;;7.50;;
9906;SDS011;4992;51.628;6.664;2023-04-07T13:32:14;13.40;;;8.40;;
9906;SDS011;4992;51.628;6.664;2023-04-07T13:34:40;12.13;;;8.30;;
9906;SDS011;4992;51.628;6.664;2023-04-07T13:37:07;15.95;;;9.10;;
9906;SDS011;4992;51.628;6.664;2023-04-07T13:39:33;14.50;;;8.88;;
9906;SDS011;4992;51.628;6.664;2023-04-07T13:41:59;11.00;;;8.82;;
9906;SDS011;4992;51.628;6.664;2023-04-07T13:44:26;18.33;;;10.00;;
9906;SDS011;4992;51.628;6.664;2023-04-07T13:46:52;13.10;;;8.98;;
9906;SDS011;4992;51.628;6.664;2023-04-07T13:49:18;15.37;;;11.23;;
9906;SDS011;4992;51.628;6.664;2023-04-07T13:51:44;15.07;;;10.87;;
9906;SDS011;4992;51.628;6.664;2023-04-07T13:54:10;19.52;;;11.15;;
9906;SDS011;4992;51.628;6.664;2023-04-07T13:56:36;20.63;;;13.23;;
9906;SDS011;4992;51.628;6.664;2023-04-07T13:59:05;18.47;;;13.80;;
9906;SDS011;4992;51.628;6.664;2023-04-07T14:01:32;16.93;;;13.47;;
9906;SDS011;4992;51.628;6.664;2023-04-07T14:03:59;23.10;;;14.23;;
9906;SDS011;4992;51.628;6.664;2023-04-07T14:06:25;18.27;;;13.80;;
9906;SDS011;4992;51.628;6.664;2023-04-07T14:08:51;24.60;;;15.77;;
9906;SDS011;4992;51.628;6.664;2023-04-07T14:11:18;22.90;;;15.37;;
9906;SDS011;4992;51.628;6.664;2023-04-07T14:13:44;25.67;;;15.97;;
9906;SDS011;4992;51.628;6.664;2023-04-07T14:16:10;28.20;;;16.17;;
9906;SDS011;4992;51.628;6.664;2023-04-07T14:18:37;22.40;;;16.33;;
9906;SDS011;4992;51.628;6.664;2023-04-07T14:21:03;24.07;;;15.37;;
9906;SDS011;4992;51.628;6.664;2023-04-07T14:23:29;23.70;;;15.30;;
9906;SDS011;4992;51.628;6.664;2023-04-07T14:25:58;25.93;;;16.60;;
9906;SDS011;4992;51.628;6.664;2023-04-07T14:28:25;22.63;;;16.30;;
9906;SDS011;4992;51.628;6.664;2023-04-07T14:30:51;26.77;;;15.40;;
9906;SDS011;4992;51.628;6.664;2023-04-07T14:33:18;21.87;;;15.83;;
9906;SDS011;4992;51.628;6.664;2023-04-07T14:35:44;26.10;;;16.07;;
9906;SDS011;4992;51.628;6.664;2023-04-07T14:38:10;24.40;;;16.30;;
9906;SDS011;4992;51.628;6.664;2023-04-07T14:40:36;20.60;;;12.73;;
9906;SDS011;4992;51.628;6.664;2023-04-07T14:43:02;19.43;;;12.67;;
9906;SDS011;4992;51.628;6.664;2023-04-07T14:45:30;18.20;;;14.05;;
9906;SDS011;4992;51.628;6.664;2023-04-07T14:47:56;18.00;;;12.47;;
9906;SDS011;4992;51.628;6.664;2023-04-07T14:50:22;16.30;;;10.43;;
9906;SDS011;4992;51.628;6.664;2023-04-07T14:52:48;11.80;;;9.40;;
9906;SDS011;4992;51.628;6.664;2023-04-07T14:55:14;14.47;;;9.30;;
9906;SDS011;4992;51.628;6.664;2023-04-07T14:57:40;11.47;;;7.97;;
9906;SDS011;4992;51.628;6.664;2023-04-07T15:00:06;10.37;;;8.60;;
9906;SDS011;4992;51.628;6.664;2023-04-07T15:02:33;10.83;;;8.63;;
9906;SDS011;4992;51.628;6.664;2023-04-07T15:04:59;14.47;;;9.43;;
9906;SDS011;4992;51.628;6.664;2023-04-07T15:07:25;10.83;;;8.70;;
9906;SDS011;4992;51.628;6.664;2023-04-07T15:09:51;13.40;;;9.07;;
9906;SDS011;4992;51.628;6.664;2023-04-07T15:12:18;12.73;;;9.70;;
9906;SDS011;4992;51.628;6.664;2023-04-07T15:14:44;13.43;;;9.47;;